Time;durP1;ratioP1;P1;durP2;ratioP2;P2;SDS_P1;SDS_P2;PMS_P1;PMS_P2;Temp;Humidity;BMP_temperature;BMP_pressure;BME280_temperature;BME280_humidity;BME280_pressure;Samples;Min_cycle;Max_cycle;Signal;HPM_P1;HPM_P2
2024/03/22 00:00:38;;;;;;;16.47;12.43;;;8.90;99.90;;;;;;4966497;28;20470;-67
2024/03/22 00:03:05;;;;;;;15.80;10.70;;;8.90;99.90;;;;;;4965753;28;20572;-67
2024/03/22 00:05:31;;;;;;;15.37;11.77;;;8.90;99.90;;;;;;4967986;28;20504;-67
2024/03/22 00:07:58;;;;;;;15.33;11.73;;;8.90;99.90;;;;;;4965716;28;20470;-67
2024/03/22 00:10:24;;;;;;;16.80;11.43;;;8.90;99.90;;;;;;4966158;28;20482;-67
2024/03/22 00:12:51;;;;;;;17.20;11.90;;;8.90;99.90;;;;;;4963827;28;20928;-67
2024/03/22 00:15:17;;;;;;;17.80;12.60;;;8.90;99.90;;;;;;4966940;28;20473;-67
2024/03/22 00:17:46;;;;;;;18.33;13.20;;;8.90;99.90;;;;;;4966462;28;20477;-67
2024/03/22 00:20:12;;;;;;;13.57;11.73;;;8.90;99.90;;;;;;4971160;28;20612;-67
2024/03/22 00:22:39;;;;;;;15.80;12.67;;;8.90;99.90;;;;;;4988592;28;20489;-67
2024/03/22 00:25:06;;;;;;;14.40;11.70;;;8.90;99.90;;;;;;4988402;28;20481;-67
2024/03/22 00:27:33;;;;;;;16.77;12.93;;;8.90;99.90;;;;;;4988608;28;20484;-67
2024/03/22 00:29:59;;;;;;;14.97;12.13;;;8.90;99.90;;;;;;4988553;28;20966;-67
2024/03/22 00:32:26;;;;;;;16.23;12.33;;;8.90;99.90;;;;;;4988292;28;20530;-67
2024/03/22 00:34:54;;;;;;;14.70;12.33;;;8.90;99.90;;;;;;4989232;28;21236;-67
2024/03/22 00:37:21;;;;;;;16.53;12.97;;;8.90;99.90;;;;;;4987164;28;20823;-67
2024/03/22 00:39:47;;;;;;;15.50;12.80;;;8.90;99.90;;;;;;4988559;28;20555;-66
2024/03/22 00:42:14;;;;;;;14.50;12.20;;;8.90;99.90;;;;;;4988749;28;21014;-67
2024/03/22 00:44:40;;;;;;;19.40;11.20;;;8.90;99.90;;;;;;4989679;28;21244;-67
2024/03/22 00:47:07;;;;;;;16.63;11.70;;;9.00;99.90;;;;;;4987878;28;20473;-67
2024/03/22 00:49:34;;;;;;;16.93;12.37;;;9.00;99.90;;;;;;4987308;28;20531;-67
2024/03/22 00:52:02;;;;;;;15.77;11.67;;;9.00;99.90;;;;;;4989389;28;20489;-67
2024/03/22 00:54:29;;;;;;;14.67;12.37;;;9.00;99.90;;;;;;4988072;28;20470;-67
2024/03/22 00:56:56;;;;;;;14.77;11.63;;;9.00;99.90;;;;;;4988912;28;20893;-67
2024/03/22 00:59:22;;;;;;;14.37;12.03;;;9.00;99.90;;;;;;4986530;28;20554;-67
2024/03/22 01:01:49;;;;;;;19.47;13.13;;;9.00;99.90;;;;;;4968171;28;20999;-67
2024/03/22 01:04:15;;;;;;;15.57;11.53;;;9.00;99.90;;;;;;4969143;28;20501;-67
2024/03/22 01:06:42;;;;;;;16.93;12.20;;;9.00;99.90;;;;;;4967419;28;20565;-67
2024/03/22 01:09:09;;;;;;;17.77;13.40;;;9.00;99.90;;;;;;4968278;28;20474;-67
2024/03/22 01:11:36;;;;;;;16.07;13.00;;;9.00;99.90;;;;;;4987140;28;20485;-72
2024/03/22 01:14:02;;;;;;;17.40;13.40;;;9.00;99.90;;;;;;4987109;28;20481;-67
2024/03/22 01:16:30;;;;;;;14.80;12.10;;;9.00;99.90;;;;;;4989665;28;20469;-67
2024/03/22 01:18:56;;;;;;;13.63;11.23;;;9.00;99.90;;;;;;4988201;28;20476;-67
2024/03/22 01:21:25;;;;;;;15.77;12.53;;;9.00;99.90;;;;;;4971628;28;20533;-67
2024/03/22 01:23:51;;;;;;;16.67;13.00;;;9.00;99.90;;;;;;4967633;28;20466;-66
2024/03/22 01:26:20;;;;;;;16.93;12.90;;;9.00;99.90;;;;;;4969467;28;20470;-67
2024/03/22 01:28:46;;;;;;;20.13;13.17;;;9.00;99.90;;;;;;4967767;28;20482;-67
2024/03/22 01:31:13;;;;;;;15.00;12.93;;;9.00;99.90;;;;;;4980446;28;20488;-67
2024/03/22 01:33:39;;;;;;;15.67;12.90;;;9.00;99.90;;;;;;4988662;28;20473;-67
2024/03/22 01:36:07;;;;;;;14.60;13.10;;;9.00;99.90;;;;;;4987367;28;20473;-67
2024/03/22 01:38:33;;;;;;;14.20;12.30;;;9.00;99.90;;;;;;4987310;28;20536;-67
2024/03/22 01:41:00;;;;;;;15.97;13.10;;;9.00;99.90;;;;;;4986250;28;20476;-67
2024/03/22 01:43:27;;;;;;;17.27;13.00;;;9.00;99.90;;;;;;4987829;28;20481;-67
2024/03/22 01:45:54;;;;;;;17.00;13.60;;;9.00;99.90;;;;;;4987512;28;20540;-67
2024/03/22 01:48:20;;;;;;;17.73;14.40;;;9.00;99.90;;;;;;4987234;28;20484;-67
2024/03/22 01:50:48;;;;;;;16.63;13.60;;;9.00;99.90;;;;;;4975862;28;20482;-67
2024/03/22 01:53:14;;;;;;;19.53;14.30;;;9.00;99.90;;;;;;4967885;28;20497;-67
2024/03/22 01:55:41;;;;;;;19.43;14.00;;;9.00;99.90;;;;;;4966547;28;20863;-67
2024/03/22 01:58:08;;;;;;;20.03;15.37;;;9.00;99.90;;;;;;4967480;28;20482;-67
2024/03/22 02:00:37;;;;;;;19.30;14.20;;;9.00;99.90;;;;;;4976716;28;20476;-67
2024/03/22 02:03:03;;;;;;;20.10;14.93;;;9.00;99.90;;;;;;4986897;28;20501;-67
2024/03/22 02:05:30;;;;;;;17.83;14.03;;;9.00;99.90;;;;;;4987075;28;21226;-67
2024/03/22 02:07:56;;;;;;;21.57;14.13;;;9.00;99.90;;;;;;5003432;28;20472;-67
2024/03/22 02:10:23;;;;;;;20.20;16.40;;;9.10;99.90;;;;;;4977670;28;20893;-67
2024/03/22 02:12:50;;;;;;;17.37;14.70;;;9.10;99.90;;;;;;4964256;28;20498;-67
2024/03/22 02:15:16;;;;;;;21.73;14.30;;;9.10;99.90;;;;;;4968719;28;20470;-67
2024/03/22 02:17:45;;;;;;;18.83;15.27;;;9.10;99.90;;;;;;4968635;28;20470;-67
2024/03/22 02:20:11;;;;;;;20.57;15.43;;;9.10;99.90;;;;;;4973317;28;20861;-67
2024/03/22 02:22:39;;;;;;;20.00;16.47;;;9.10;99.90;;;;;;4985385;28;21163;-67
2024/03/22 02:25:07;;;;;;;19.03;14.57;;;9.20;99.90;;;;;;4987500;28;20827;-67
2024/03/22 02:27:34;;;;;;;23.63;17.30;;;9.20;99.90;;;;;;4986457;28;21041;-67
2024/03/22 02:30:02;;;;;;;21.23;16.07;;;9.20;99.90;;;;;;5001242;28;20500;-66
2024/03/22 02:32:29;;;;;;;21.17;15.90;;;9.20;99.90;;;;;;4985716;28;20873;-67
2024/03/22 02:34:55;;;;;;;21.30;16.37;;;9.20;99.90;;;;;;4987340;28;20538;-67
2024/03/22 02:37:22;;;;;;;22.87;17.30;;;9.20;99.90;;;;;;4987347;28;20465;-67
2024/03/22 02:39:48;;;;;;;21.63;16.37;;;9.20;99.90;;;;;;4980504;28;20473;-67
2024/03/22 02:42:17;;;;;;;21.30;16.97;;;9.20;99.90;;;;;;4967563;28;20578;-67
2024/03/22 02:44:43;;;;;;;22.17;16.80;;;9.20;99.90;;;;;;4967497;28;20991;-67
2024/03/22 02:47:10;;;;;;;19.33;15.90;;;9.20;99.90;;;;;;4967433;28;20490;-67
2024/03/22 02:49:38;;;;;;;22.20;18.27;;;9.20;99.90;;;;;;4958896;28;21003;-67
2024/03/22 02:52:05;;;;;;;22.17;17.20;;;9.20;99.90;;;;;;4967201;28;20505;-67
2024/03/22 02:54:32;;;;;;;21.40;17.40;;;9.20;99.90;;;;;;4966601;28;20533;-67
2024/03/22 02:56:59;;;;;;;21.50;17.00;;;9.30;99.90;;;;;;4967444;28;20906;-67
2024/03/22 02:59:27;;;;;;;22.90;17.97;;;9.30;99.90;;;;;;4964082;28;20529;-67
2024/03/22 03:01:54;;;;;;;24.10;19.10;;;9.30;99.90;;;;;;4975488;28;20497;-67
2024/03/22 03:04:20;;;;;;;21.57;17.13;;;9.30;99.90;;;;;;4976880;28;20478;-67
2024/03/22 03:06:47;;;;;;;23.67;18.47;;;9.30;99.90;;;;;;4974326;28;20481;-67
2024/03/22 03:09:13;;;;;;;23.60;19.07;;;9.30;99.90;;;;;;4976056;28;20477;-67
2024/03/22 03:11:41;;;;;;;22.53;18.20;;;9.30;99.90;;;;;;4985084;28;20485;-67
2024/03/22 03:14:07;;;;;;;25.13;19.53;;;9.30;99.90;;;;;;4986020;28;20477;-67
2024/03/22 03:16:35;;;;;;;23.70;17.97;;;9.30;99.90;;;;;;4984504;28;20527;-67
2024/03/22 03:19:01;;;;;;;24.30;19.33;;;9.40;99.90;;;;;;4986499;28;20465;-67
2024/03/22 03:21:28;;;;;;;27.50;21.70;;;9.40;99.90;;;;;;4968985;28;21152;-67
2024/03/22 03:23:54;;;;;;;26.87;21.00;;;9.40;99.90;;;;;;4966036;28;21038;-67
2024/03/22 03:26:22;;;;;;;28.10;20.60;;;9.40;99.90;;;;;;4966763;28;20990;-67
2024/03/22 03:28:48;;;;;;;25.27;20.10;;;9.40;99.90;;;;;;4967466;28;20483;-67
2024/03/22 03:31:15;;;;;;;26.63;21.23;;;9.40;99.90;;;;;;4978778;28;20493;-66
2024/03/22 03:33:42;;;;;;;27.20;20.87;;;9.40;99.90;;;;;;4986091;28;20552;-66
2024/03/22 03:36:09;;;;;;;26.17;21.27;;;9.40;99.90;;;;;;4985896;28;20536;-67
2024/03/22 03:38:37;;;;;;;26.87;20.77;;;9.40;99.90;;;;;;4986181;28;20473;-67
2024/03/22 03:41:04;;;;;;;29.17;22.13;;;9.40;99.90;;;;;;4970185;28;20509;-67
2024/03/22 03:43:30;;;;;;;25.90;19.80;;;9.50;99.90;;;;;;4966183;28;20473;-67
2024/03/22 03:45:57;;;;;;;27.70;20.97;;;9.50;99.90;;;;;;4966652;28;20994;-67
2024/03/22 03:48:23;;;;;;;30.33;22.37;;;9.50;99.90;;;;;;4965211;28;20478;-67
2024/03/22 03:50:59;;;;;;;27.83;20.73;;;9.50;99.90;;;;;;4978030;28;20477;-67
2024/03/22 03:53:25;;;;;;;28.87;22.50;;;9.50;99.90;;;;;;4985767;28;20464;-67
2024/03/22 03:55:52;;;;;;;28.37;23.20;;;9.50;99.90;;;;;;4985546;28;20469;-67
2024/03/22 03:58:18;;;;;;;29.73;23.20;;;9.50;99.90;;;;;;4988034;28;20473;-67
2024/03/22 04:00:45;;;;;;;30.63;22.87;;;9.50;99.90;;;;;;4987387;28;20524;-67
2024/03/22 04:03:11;;;;;;;28.93;22.90;;;9.50;99.90;;;;;;4989371;28;20493;-67
2024/03/22 04:05:38;;;;;;;29.67;22.23;;;9.60;99.90;;;;;;4989984;28;20488;-67
2024/03/22 04:08:06;;;;;;;31.30;23.10;;;9.50;99.90;;;;;;4988623;28;20468;-67
2024/03/22 04:10:33;;;;;;;30.23;23.30;;;9.50;99.90;;;;;;4988410;28;20481;-67
2024/03/22 04:12:59;;;;;;;30.63;22.30;;;9.60;99.90;;;;;;4988525;28;20497;-67
2024/03/22 04:15:26;;;;;;;31.80;24.30;;;9.50;99.90;;;;;;4990531;28;20482;-67
2024/03/22 04:17:53;;;;;;;30.10;24.17;;;9.60;99.90;;;;;;4989890;28;20473;-67
2024/03/22 04:20:20;;;;;;;34.60;24.30;;;9.50;99.90;;;;;;4979667;28;21007;-67
2024/03/22 04:22:46;;;;;;;35.60;26.67;;;9.50;99.90;;;;;;4970086;28;20497;-67
2024/03/22 04:25:14;;;;;;;31.20;23.90;;;9.50;99.90;;;;;;4968530;28;20469;-67
2024/03/22 04:27:40;;;;;;;32.97;25.07;;;9.50;99.90;;;;;;4969370;28;20469;-67
2024/03/22 04:30:10;;;;;;;33.93;26.53;;;9.50;99.90;;;;;;4975468;28;20539;-67
2024/03/22 04:32:36;;;;;;;33.23;25.33;;;9.50;99.90;;;;;;4987760;28;20859;-67
2024/03/22 04:35:04;;;;;;;36.33;26.90;;;9.50;99.90;;;;;;4989844;28;20473;-67
2024/03/22 04:37:31;;;;;;;32.93;24.53;;;9.60;99.90;;;;;;4986916;28;20473;-67
2024/03/22 04:39:58;;;;;;;32.57;25.40;;;9.60;99.90;;;;;;4983866;28;20493;-67
2024/03/22 04:42:26;;;;;;;35.90;26.03;;;9.60;99.90;;;;;;4968999;28;20553;-67
2024/03/22 04:44:53;;;;;;;35.60;26.40;;;9.60;99.90;;;;;;4969813;28;20478;-67
2024/03/22 04:47:20;;;;;;;36.13;26.27;;;9.60;99.90;;;;;;4967661;28;21231;-67
2024/03/22 04:49:47;;;;;;;33.53;24.90;;;9.60;99.90;;;;;;4971580;28;20477;-67
2024/03/22 04:52:13;;;;;;;37.57;26.67;;;9.60;99.90;;;;;;4988258;28;20543;-67
2024/03/22 04:54:40;;;;;;;37.30;27.30;;;9.60;99.90;;;;;;4988454;28;20480;-67
2024/03/22 04:57:07;;;;;;;36.10;26.77;;;9.70;99.90;;;;;;4987600;28;20465;-67
2024/03/22 04:59:35;;;;;;;34.10;25.37;;;9.70;99.90;;;;;;4988218;28;20477;-67
2024/03/22 05:02:02;;;;;;;35.70;27.40;;;9.70;99.90;;;;;;5003453;28;20857;-67
2024/03/22 05:04:28;;;;;;;37.47;26.63;;;9.70;99.90;;;;;;4988432;28;20881;-67
2024/03/22 05:06:55;;;;;;;36.50;26.57;;;9.70;99.90;;;;;;4986708;28;20472;-67
2024/03/22 05:09:21;;;;;;;37.80;27.13;;;9.70;99.90;;;;;;5005454;28;20469;-66
2024/03/22 05:11:50;;;;;;;36.03;25.37;;;9.70;99.90;;;;;;4987831;28;20504;-67
2024/03/22 05:14:17;;;;;;;32.30;24.33;;;9.70;99.90;;;;;;4988420;28;20548;-67
2024/03/22 05:16:46;;;;;;;37.93;27.60;;;9.70;99.90;;;;;;4989004;28;20480;-67
2024/03/22 05:19:12;;;;;;;34.97;27.87;;;9.80;99.90;;;;;;4987470;28;21461;-67
2024/03/22 05:21:39;;;;;;;36.03;27.50;;;9.80;99.90;;;;;;4986679;28;20501;-67
2024/03/22 05:24:05;;;;;;;35.67;26.77;;;9.70;99.90;;;;;;4987621;28;20527;-67
2024/03/22 05:26:36;;;;;;;35.90;25.77;;;9.80;99.90;;;;;;4987034;28;20885;-67
2024/03/22 05:29:02;;;;;;;36.40;27.70;;;9.80;99.90;;;;;;4987752;28;20480;-67
2024/03/22 05:31:29;;;;;;;38.37;28.23;;;9.80;99.90;;;;;;4984867;28;20497;-67
2024/03/22 05:33:57;;;;;;;35.80;27.50;;;9.80;99.90;;;;;;4988348;28;20902;-67
2024/03/22 05:36:24;;;;;;;41.50;27.80;;;9.80;99.90;;;;;;4987278;28;20466;-67
2024/03/22 05:38:50;;;;;;;37.07;27.00;;;9.80;99.90;;;;;;4986323;28;20554;-67
2024/03/22 05:41:17;;;;;;;37.27;27.70;;;9.80;99.90;;;;;;4972467;28;20860;-67
2024/03/22 05:43:43;;;;;;;38.97;27.17;;;9.80;99.90;;;;;;4968345;28;20481;-67
2024/03/22 05:46:10;;;;;;;36.30;26.57;;;9.80;99.90;;;;;;4968076;28;21015;-67
2024/03/22 05:48:36;;;;;;;38.70;27.40;;;9.80;99.90;;;;;;4968396;28;20470;-67
2024/03/22 05:51:05;;;;;;;37.50;28.37;;;9.80;99.90;;;;;;4980736;28;20488;-67
2024/03/22 05:53:31;;;;;;;36.80;27.03;;;9.90;99.90;;;;;;4987607;28;20540;-67
2024/03/22 05:55:58;;;;;;;38.80;27.80;;;9.90;99.90;;;;;;4986772;28;20954;-67
2024/03/22 05:58:24;;;;;;;38.47;27.57;;;9.90;99.90;;;;;;4987547;28;20472;-67
2024/03/22 06:00:53;;;;;;;34.83;26.23;;;10.00;99.90;;;;;;4975275;28;20536;-69
2024/03/22 06:03:19;;;;;;;41.10;28.07;;;10.00;99.90;;;;;;4954634;28;20497;-67
2024/03/22 06:05:47;;;;;;;40.50;28.73;;;10.00;99.90;;;;;;4968137;28;20481;-67
2024/03/22 06:08:18;;;;;;;40.27;29.57;;;10.00;99.90;;;;;;4966720;28;20478;-67
2024/03/22 06:10:45;;;;;;;37.97;27.30;;;10.00;99.90;;;;;;4977634;28;20990;-67
2024/03/22 06:13:12;;;;;;;35.43;27.43;;;10.00;99.90;;;;;;4985752;28;21166;-67
2024/03/22 06:15:39;;;;;;;37.90;28.43;;;10.00;99.90;;;;;;4987941;28;20469;-67
2024/03/22 06:18:06;;;;;;;40.03;28.57;;;10.00;99.90;;;;;;4985967;28;20998;-66
2024/03/22 06:20:33;;;;;;;42.13;30.23;;;10.00;99.90;;;;;;4974420;28;20493;-66
2024/03/22 06:22:59;;;;;;;39.77;28.30;;;10.00;99.90;;;;;;4967933;28;20482;-66
2024/03/22 06:25:28;;;;;;;38.40;29.70;;;10.10;99.90;;;;;;4968287;28;20537;-66
2024/03/22 06:27:54;;;;;;;38.23;28.07;;;10.10;99.90;;;;;;4964881;28;21101;-67
2024/03/22 06:30:21;;;;;;;40.27;28.87;;;10.10;99.90;;;;;;4966430;28;20505;-67
2024/03/22 06:32:47;;;;;;;41.63;29.27;;;10.10;99.90;;;;;;4964813;28;20502;-66
2024/03/22 06:35:14;;;;;;;37.37;29.23;;;10.20;99.90;;;;;;4966821;28;20994;-66
2024/03/22 06:37:40;;;;;;;42.53;30.37;;;10.20;99.90;;;;;;4966295;28;20552;-67
2024/03/22 06:40:09;;;;;;;39.73;28.60;;;10.20;99.90;;;;;;4966866;28;20482;-67
2024/03/22 06:42:37;;;;;;;40.70;29.37;;;10.20;99.90;;;;;;4963634;28;20494;-67
2024/03/22 06:45:04;;;;;;;41.83;30.40;;;10.20;99.90;;;;;;4967705;28;20466;-67
2024/03/22 06:47:30;;;;;;;39.97;29.20;;;10.30;99.90;;;;;;4982855;28;20478;-66
2024/03/22 06:49:57;;;;;;;43.80;30.47;;;10.30;99.90;;;;;;4966745;28;21146;-67
2024/03/22 06:52:23;;;;;;;38.97;29.40;;;10.30;99.90;;;;;;4965434;28;20490;-67
2024/03/22 06:54:52;;;;;;;37.73;29.73;;;10.30;99.90;;;;;;4967376;28;20470;-67
2024/03/22 06:57:18;;;;;;;41.13;29.47;;;10.30;99.90;;;;;;4966837;28;20471;-67
2024/03/22 06:59:46;;;;;;;44.50;30.53;;;10.30;99.90;;;;;;4964936;28;20478;-67
2024/03/22 07:02:14;;;;;;;42.57;30.70;;;10.30;99.90;;;;;;4981236;28;20513;-66
2024/03/22 07:04:41;;;;;;;42.20;29.90;;;10.30;99.90;;;;;;4965935;28;20478;-67
2024/03/22 07:07:07;;;;;;;39.50;29.90;;;10.40;99.90;;;;;;4966819;28;20823;-66
2024/03/22 07:09:34;;;;;;;44.93;29.90;;;10.40;99.90;;;;;;4964808;28;20470;-66
2024/03/22 07:12:00;;;;;;;40.40;30.60;;;10.40;99.90;;;;;;4981916;28;20490;-66
2024/03/22 07:14:27;;;;;;;43.13;30.30;;;10.50;99.90;;;;;;4967216;28;20466;-67
2024/03/22 07:16:55;;;;;;;43.73;31.67;;;10.50;99.90;;;;;;4967876;28;20470;-67
2024/03/22 07:19:22;;;;;;;47.87;31.70;;;10.50;99.90;;;;;;4964440;28;20478;-66
2024/03/22 07:21:48;;;;;;;45.17;33.30;;;10.50;99.90;;;;;;4967029;28;20494;-67
2024/03/22 07:24:15;;;;;;;40.67;31.33;;;10.50;99.90;;;;;;4967007;28;20528;-67
2024/03/22 07:26:41;;;;;;;43.43;31.13;;;10.50;99.90;;;;;;4967351;28;21082;-66
2024/03/22 07:29:08;;;;;;;43.63;32.20;;;10.60;99.90;;;;;;4964845;28;20470;-67
2024/03/22 07:31:34;;;;;;;42.70;29.90;;;10.60;99.90;;;;;;4985562;28;20489;-67
2024/03/22 07:34:03;;;;;;;40.00;29.67;;;10.60;99.90;;;;;;4990432;28;20497;-67
2024/03/22 07:36:30;;;;;;;42.27;29.90;;;10.60;99.90;;;;;;5003909;28;20913;-67
2024/03/22 07:38:58;;;;;;;42.50;30.57;;;10.70;99.90;;;;;;4988657;28;20483;-67
2024/03/22 07:41:24;;;;;;;45.80;32.67;;;10.70;99.90;;;;;;4972481;28;20485;-67
2024/03/22 07:43:51;;;;;;;41.63;31.77;;;10.80;99.90;;;;;;4969744;28;20474;-67
2024/03/22 07:46:18;;;;;;;44.37;31.87;;;10.80;99.90;;;;;;4968795;28;20473;-67
2024/03/22 07:48:45;;;;;;;44.13;32.37;;;10.80;99.90;;;;;;4970626;28;20524;-67
2024/03/22 07:51:12;;;;;;;44.33;31.90;;;10.80;99.90;;;;;;4984729;28;21056;-67
2024/03/22 07:53:39;;;;;;;44.10;31.73;;;10.90;99.90;;;;;;4987526;28;20489;-67
2024/03/22 07:56:06;;;;;;;42.33;30.43;;;10.90;99.90;;;;;;4989589;28;20844;-67
2024/03/22 07:58:33;;;;;;;47.70;31.90;;;10.90;99.90;;;;;;4988791;28;20505;-67
2024/03/22 08:00:59;;;;;;;45.60;32.20;;;10.90;99.90;;;;;;4989451;28;20507;-67
2024/03/22 08:03:26;;;;;;;44.87;32.37;;;10.90;99.90;;;;;;4988399;28;20465;-67
2024/03/22 08:05:52;;;;;;;48.57;33.17;;;10.80;99.90;;;;;;4989126;28;20477;-67
2024/03/22 08:08:21;;;;;;;49.03;33.23;;;10.80;99.90;;;;;;4990246;28;20473;-67
2024/03/22 08:10:47;;;;;;;45.30;30.87;;;10.80;99.90;;;;;;4976701;28;20478;-67
2024/03/22 08:13:14;;;;;;;46.77;33.57;;;10.80;99.90;;;;;;4969903;28;20501;-67
2024/03/22 08:15:40;;;;;;;44.77;33.10;;;10.80;99.90;;;;;;4970561;28;20481;-66
2024/03/22 08:18:08;;;;;;;46.23;33.67;;;10.80;99.90;;;;;;4968048;28;20478;-68
2024/03/22 08:20:34;;;;;;;47.03;33.73;;;10.80;99.90;;;;;;4979420;28;20493;-67
2024/03/22 08:23:01;;;;;;;45.57;32.80;;;10.80;99.90;;;;;;4989605;28;20879;-67
2024/03/22 08:25:30;;;;;;;45.07;31.90;;;10.90;99.90;;;;;;4990748;28;20896;-67
2024/03/22 08:27:58;;;;;;;44.33;32.53;;;10.80;99.90;;;;;;4987960;28;21121;-66
2024/03/22 08:30:25;;;;;;;50.03;35.30;;;10.80;99.90;;;;;;4979339;28;21097;-67
2024/03/22 08:32:52;;;;;;;46.97;34.20;;;10.90;99.90;;;;;;4969087;28;21018;-67
2024/03/22 08:35:18;;;;;;;48.37;33.97;;;10.80;99.90;;;;;;4969828;28;21022;-67
2024/03/22 08:37:45;;;;;;;45.07;34.37;;;10.80;99.90;;;;;;4970410;28;20473;-67
2024/03/22 08:40:13;;;;;;;47.33;35.20;;;10.80;99.90;;;;;;4974517;28;20536;-68
2024/03/22 08:42:43;;;;;;;49.73;33.90;;;10.80;99.90;;;;;;4987845;28;20484;-67
2024/03/22 08:45:09;;;;;;;45.50;34.20;;;10.90;99.90;;;;;;4985964;28;21060;-67
2024/03/22 08:47:36;;;;;;;49.80;34.70;;;10.90;99.90;;;;;;4988425;28;20468;-67
2024/03/22 08:50:03;;;;;;;47.80;34.00;;;10.90;99.90;;;;;;4982016;28;20520;-67
2024/03/22 08:52:31;;;;;;;47.00;32.70;;;10.90;99.90;;;;;;4970141;28;20502;-67
2024/03/22 08:54:58;;;;;;;48.30;34.60;;;10.90;99.90;;;;;;4968341;28;20466;-67
2024/03/22 08:57:25;;;;;;;48.07;34.90;;;11.00;99.90;;;;;;4969353;28;20466;-67
2024/03/22 08:59:52;;;;;;;49.53;34.70;;;10.90;99.90;;;;;;4972936;28;20840;-67
2024/03/22 09:02:19;;;;;;;46.57;34.30;;;11.00;99.90;;;;;;4986996;28;20563;-67
2024/03/22 09:04:46;;;;;;;43.40;32.93;;;10.90;99.90;;;;;;4988213;28;20473;-67
2024/03/22 09:07:13;;;;;;;46.30;34.17;;;10.90;99.90;;;;;;4988894;28;20473;-67
2024/03/22 09:09:42;;;;;;;46.90;33.50;;;10.90;99.90;;;;;;4984409;28;20971;-67
2024/03/22 09:12:09;;;;;;;50.23;35.00;;;10.90;99.90;;;;;;4967063;28;20490;-67
2024/03/22 09:14:35;;;;;;;47.77;34.80;;;10.90;99.90;;;;;;4968035;28;20497;-67
2024/03/22 09:17:03;;;;;;;48.43;35.03;;;10.90;99.90;;;;;;4968450;28;20485;-67
2024/03/22 09:19:29;;;;;;;50.03;34.77;;;11.00;99.90;;;;;;4969092;28;21155;-67
2024/03/22 09:21:57;;;;;;;46.50;34.57;;;11.00;99.90;;;;;;5003530;28;20485;-67
2024/03/22 09:24:23;;;;;;;45.80;33.07;;;11.00;99.90;;;;;;4987931;28;20477;-67
2024/03/22 09:26:50;;;;;;;49.20;34.30;;;11.00;99.90;;;;;;4988724;28;20477;-67
2024/03/22 09:29:16;;;;;;;45.13;31.50;;;11.00;99.90;;;;;;4986190;28;20469;-67
2024/03/22 09:31:43;;;;;;;46.77;34.97;;;11.00;99.90;;;;;;4968099;28;20490;-67
2024/03/22 09:34:12;;;;;;;45.37;33.53;;;11.00;99.90;;;;;;4967835;28;20497;-67
2024/03/22 09:36:39;;;;;;;46.13;33.33;;;11.00;99.90;;;;;;4965677;28;20474;-67
2024/03/22 09:39:05;;;;;;;48.00;33.50;;;11.00;99.90;;;;;;4968400;28;20860;-67
2024/03/22 09:41:33;;;;;;;45.37;32.53;;;11.00;99.90;;;;;;4985844;28;20485;-67
2024/03/22 09:44:01;;;;;;;43.70;32.17;;;11.00;99.90;;;;;;4987195;28;20535;-67
2024/03/22 09:46:29;;;;;;;46.00;31.67;;;11.00;99.90;;;;;;4986740;28;20500;-67
2024/03/22 09:48:57;;;;;;;45.93;33.50;;;11.00;99.90;;;;;;4987160;28;20469;-67
2024/03/22 09:51:25;;;;;;;44.43;32.63;;;11.00;99.90;;;;;;4971231;28;20473;-67
2024/03/22 09:53:53;;;;;;;41.37;30.87;;;11.00;99.90;;;;;;4984408;28;20485;-67
2024/03/22 09:56:22;;;;;;;42.50;31.67;;;11.00;99.90;;;;;;5004544;28;20473;-67
2024/03/22 09:58:49;;;;;;;39.70;30.07;;;11.00;99.90;;;;;;5004435;28;20477;-67
2024/03/22 10:01:17;;;;;;;42.03;29.13;;;11.00;99.90;;;;;;4970396;28;21009;-67
2024/03/22 10:03:44;;;;;;;38.60;27.33;;;11.00;99.90;;;;;;4966913;28;20529;-67
2024/03/22 10:06:11;;;;;;;40.70;29.00;;;11.00;99.90;;;;;;4968095;28;20529;-67
2024/03/22 10:08:39;;;;;;;37.47;27.50;;;11.00;99.90;;;;;;4967430;28;20478;-67
2024/03/22 10:11:06;;;;;;;35.33;26.90;;;11.00;99.90;;;;;;4979784;28;20481;-66
2024/03/22 10:13:32;;;;;;;33.80;25.67;;;11.00;99.90;;;;;;4987029;28;20499;-67
2024/03/22 10:15:59;;;;;;;34.77;25.30;;;11.00;99.90;;;;;;4986041;28;20962;-66
2024/03/22 10:18:26;;;;;;;31.53;24.20;;;11.00;99.90;;;;;;4986452;28;21401;-66
2024/03/22 10:21:01;;;;;;;31.07;24.20;;;11.00;99.90;;;;;;4984392;28;21009;-66
2024/03/22 10:23:27;;;;;;;33.23;24.27;;;11.00;99.90;;;;;;4987588;28;20472;-66
2024/03/22 10:25:57;;;;;;;33.00;23.90;;;10.90;99.90;;;;;;4987297;28;20469;-66
2024/03/22 10:28:24;;;;;;;32.50;23.80;;;11.00;99.90;;;;;;4987708;28;20461;-67
2024/03/22 10:30:52;;;;;;;28.03;22.10;;;11.00;99.90;;;;;;4972717;28;20501;-66
2024/03/22 10:33:19;;;;;;;29.13;22.63;;;11.00;99.90;;;;;;4967136;28;20493;-66
2024/03/22 10:35:47;;;;;;;28.10;21.57;;;11.00;99.90;;;;;;4967617;28;20552;-66
2024/03/22 10:38:14;;;;;;;28.67;21.47;;;11.00;99.90;;;;;;4966973;28;20536;-66
2024/03/22 10:40:46;;;;;;;29.27;22.50;;;11.00;99.90;;;;;;4978559;28;20866;-66
2024/03/22 10:43:13;;;;;;;27.97;22.17;;;11.00;99.90;;;;;;4985613;28;20550;-66
2024/03/22 10:45:41;;;;;;;27.90;21.57;;;11.00;99.90;;;;;;4986839;28;20477;-66
2024/03/22 10:48:10;;;;;;;24.63;20.17;;;11.00;99.90;;;;;;4985467;28;20989;-66
2024/03/22 10:50:40;;;;;;;22.00;18.17;;;11.00;99.90;;;;;;4986177;28;20473;-66
2024/03/22 10:53:10;;;;;;;22.73;18.23;;;11.00;99.90;;;;;;5002774;28;20547;-67
2024/03/22 10:55:42;;;;;;;23.73;18.30;;;11.00;99.90;;;;;;4985630;28;20489;-67
2024/03/22 10:58:16;;;;;;;22.40;16.90;;;11.00;99.90;;;;;;4987002;28;20524;-66
2024/03/22 11:00:44;;;;;;;20.50;16.17;;;11.00;99.90;;;;;;4973364;28;20498;-66
2024/03/22 11:03:10;;;;;;;17.40;15.07;;;11.00;99.90;;;;;;4967481;28;20548;-66
2024/03/22 11:05:46;;;;;;;15.57;13.67;;;11.00;99.90;;;;;;4957335;28;20505;-66
2024/03/22 11:08:13;;;;;;;17.70;14.60;;;11.00;99.90;;;;;;4964813;28;20862;-67
2024/03/22 11:10:40;;;;;;;16.07;13.67;;;11.00;99.90;;;;;;4977315;28;21010;-66
2024/03/22 11:13:08;;;;;;;16.17;14.03;;;11.00;99.90;;;;;;4985502;28;20979;-66
2024/03/22 11:15:37;;;;;;;15.43;13.63;;;11.00;99.90;;;;;;4986781;28;20470;-67
2024/03/22 11:18:03;;;;;;;15.57;12.47;;;11.00;99.90;;;;;;4984772;28;20462;-66
2024/03/22 11:20:30;;;;;;;16.50;14.70;;;11.00;99.90;;;;;;4984595;28;20519;-66
2024/03/22 11:22:57;;;;;;;16.60;14.70;;;10.90;99.90;;;;;;4986541;28;20481;-66
2024/03/22 11:25:24;;;;;;;15.60;13.60;;;11.00;99.90;;;;;;4980202;28;21201;-66
2024/03/22 11:27:50;;;;;;;14.17;12.67;;;11.00;99.90;;;;;;4982292;28;20477;-66
2024/03/22 11:30:17;;;;;;;13.40;12.00;;;11.00;99.90;;;;;;4977201;28;20474;-67
2024/03/22 11:32:45;;;;;;;11.50;10.10;;;10.90;99.90;;;;;;4966739;28;20490;-66
2024/03/22 11:35:14;;;;;;;13.63;11.60;;;10.90;99.90;;;;;;4964569;28;20466;-66
2024/03/22 11:37:41;;;;;;;13.33;10.70;;;10.90;99.90;;;;;;4967161;28;20549;-66
2024/03/22 11:40:10;;;;;;;11.97;10.17;;;11.00;99.90;;;;;;4972094;28;20873;-66
2024/03/22 11:42:37;;;;;;;12.30;10.97;;;11.00;99.90;;;;;;4986443;28;20851;-66
2024/03/22 11:45:06;;;;;;;13.83;11.03;;;11.00;99.90;;;;;;4983474;28;20527;-66
2024/03/22 11:47:33;;;;;;;12.37;11.03;;;10.90;99.90;;;;;;4985941;28;20477;-66
2024/03/22 11:50:03;;;;;;;12.33;10.70;;;10.90;99.90;;;;;;4984850;28;21116;-66
2024/03/22 11:52:29;;;;;;;11.53;10.20;;;11.00;99.90;;;;;;4984879;28;20500;-66
2024/03/22 11:54:57;;;;;;;11.73;10.13;;;11.00;99.90;;;;;;4983398;28;20493;-66
2024/03/22 11:57:24;;;;;;;10.90;9.80;;;11.00;99.90;;;;;;4983475;28;20465;-67
2024/03/22 11:59:51;;;;;;;11.60;10.20;;;11.00;99.90;;;;;;4981013;28;20485;-66
2024/03/22 12:02:17;;;;;;;11.33;10.10;;;11.00;99.90;;;;;;4966426;28;21070;-67
2024/03/22 12:04:46;;;;;;;10.90;9.67;;;11.00;99.90;;;;;;4965103;28;20466;-67
2024/03/22 12:07:15;;;;;;;10.63;9.53;;;11.00;99.90;;;;;;4965775;28;20524;-67
2024/03/22 12:09:43;;;;;;;11.33;9.90;;;11.00;99.90;;;;;;4968187;28;20515;-67
2024/03/22 12:12:10;;;;;;;10.63;9.53;;;11.00;99.90;;;;;;4985397;28;21062;-67
2024/03/22 12:14:38;;;;;;;10.43;9.20;;;11.00;99.90;;;;;;4985419;28;20503;-67
2024/03/22 12:17:05;;;;;;;12.10;10.20;;;11.00;99.90;;;;;;4985227;28;20477;-67
2024/03/22 12:19:32;;;;;;;10.10;9.10;;;11.00;99.90;;;;;;4988787;28;21105;-67
2024/03/22 12:21:58;;;;;;;8.63;7.73;;;11.00;99.90;;;;;;4986641;28;20574;-67
2024/03/22 12:24:27;;;;;;;9.23;8.33;;;11.00;99.90;;;;;;4989073;28;20461;-67
2024/03/22 12:26:54;;;;;;;9.23;8.33;;;11.00;99.90;;;;;;4988792;28;20477;-66
2024/03/22 12:29:21;;;;;;;8.17;7.37;;;11.00;99.90;;;;;;4987999;28;20875;-67
2024/03/22 12:31:48;;;;;;;7.47;6.77;;;11.00;99.90;;;;;;4986997;28;20491;-67